KSTL METAR and TAF | Updated Today

KSTL METAR

St Louis Lambert International Airport

Observation time: 38 min. ago

KSTL 220951Z 17006KT 10SM BKN080 22/17 A3007 RMK AO2 SLP172 T02170172

Need help? Read our tutorial on how to read METARs or read the parsed version below.

St Louis Lambert International Airport (KSTL) METAR

  • Weather conditions on Fri, 22 Sep 2023 09:51:00 +0000 (38 min. ago):
  • Present conditions: Dry
  • Clouds: Broken sky at 2438 meters
  • Visibility: 16093 meters
  • Wind: 170 degrees at 6 knots
  • Temperature: 22 celsius
  • Dew point: 17 celsius
  • Pressure: 30.07 inHg
  • Remarks: AO2 SLP172 T02170172


Useful to know...

KSTL TAF

St Louis Lambert International Airport

KSTL 220930Z 2210/2312 14007KT P6SM VCSH BKN070 FM221500 17007KT P6SM BKN070
Observation time: 59 min. ago
Need help? Read our tutorial on how to read TAFs or read the parsed version below.

Parsed version of TAF for St Louis Lambert International Airport (KSTL)

  • From 22 September at 10:00 UTC, to day 23 of the month at 12:00 UTC
  • Clouds: Broken sky at 2134 meters
  • Wind: 140 degrees at 7
  • Other: In the vicinity, showers of
  • From day 22 of the month at 15:00 UTC
  • Clouds: Broken sky at 2134 meters
  • Wind: 170 degrees at 7